sensor_id;sensor_type;location;lat;lon;timestamp;P1;durP1;ratioP1;P2;durP2;ratioP2
63653;SDS011;49809;47.418;19.080;2023-06-26T00:00:59;5.55;;;3.80;;
63653;SDS011;49809;47.418;19.080;2023-06-26T00:04:28;6.93;;;4.00;;
63653;SDS011;49809;47.418;19.080;2023-06-26T00:07:31;9.30;;;4.65;;
63653;SDS011;49809;47.418;19.080;2023-06-26T00:10:37;5.65;;;3.40;;
63653;SDS011;49809;47.418;19.080;2023-06-26T00:14:20;5.50;;;3.83;;
63653;SDS011;49809;47.418;19.080;2023-06-26T00:17:37;6.60;;;4.20;;
63653;SDS011;49809;47.418;19.080;2023-06-26T00:20:58;5.75;;;4.10;;
63653;SDS011;49809;47.418;19.080;2023-06-26T00:24:22;8.38;;;4.12;;
63653;SDS011;49809;47.418;19.080;2023-06-26T00:27:45;6.45;;;3.75;;
63653;SDS011;49809;47.418;19.080;2023-06-26T00:30:50;4.93;;;3.62;;
63653;SDS011;49809;47.418;19.080;2023-06-26T00:34:14;8.07;;;4.05;;
63653;SDS011;49809;47.418;19.080;2023-06-26T00:37:21;6.15;;;3.97;;
63653;SDS011;49809;47.418;19.080;2023-06-26T00:40:44;7.47;;;3.75;;
63653;SDS011;49809;47.418;19.080;2023-06-26T00:44:16;5.50;;;3.83;;
63653;SDS011;49809;47.418;19.080;2023-06-26T00:47:44;7.40;;;4.25;;
63653;SDS011;49809;47.418;19.080;2023-06-26T00:51:09;5.57;;;4.05;;
63653;SDS011;49809;47.418;19.080;2023-06-26T00:54:36;6.70;;;4.55;;
63653;SDS011;49809;47.418;19.080;2023-06-26T00:57:48;6.90;;;4.80;;
63653;SDS011;49809;47.418;19.080;2023-06-26T01:01:12;5.90;;;4.18;;
63653;SDS011;49809;47.418;19.080;2023-06-26T01:04:27;6.50;;;4.43;;
63653;SDS011;49809;47.418;19.080;2023-06-26T01:07:38;7.37;;;4.72;;
63653;SDS011;49809;47.418;19.080;2023-06-26T01:10:46;9.45;;;4.80;;
63653;SDS011;49809;47.418;19.080;2023-06-26T01:14:15;6.95;;;4.40;;
63653;SDS011;49809;47.418;19.080;2023-06-26T01:17:50;5.25;;;3.90;;
63653;SDS011;49809;47.418;19.080;2023-06-26T01:20:57;8.43;;;4.85;;
63653;SDS011;49809;47.418;19.080;2023-06-26T01:24:09;11.38;;;5.40;;
63653;SDS011;49809;47.418;19.080;2023-06-26T01:27:42;7.62;;;4.55;;
63653;SDS011;49809;47.418;19.080;2023-06-26T01:31:10;7.82;;;5.10;;
63653;SDS011;49809;47.418;19.080;2023-06-26T01:34:36;8.05;;;5.03;;
63653;SDS011;49809;47.418;19.080;2023-06-26T01:38:22;7.20;;;5.00;;
63653;SDS011;49809;47.418;19.080;2023-06-26T01:41:40;7.05;;;5.05;;
63653;SDS011;49809;47.418;19.080;2023-06-26T01:44:52;7.57;;;4.97;;
63653;SDS011;49809;47.418;19.080;2023-06-26T01:48:07;7.50;;;4.97;;
63653;SDS011;49809;47.418;19.080;2023-06-26T01:59:46;7.93;;;5.03;;
63653;SDS011;49809;47.418;19.080;2023-06-26T02:02:54;8.20;;;5.10;;
63653;SDS011;49809;47.418;19.080;2023-06-26T02:05:59;8.15;;;5.20;;
63653;SDS011;49809;47.418;19.080;2023-06-26T02:09:02;8.45;;;5.03;;
63653;SDS011;49809;47.418;19.080;2023-06-26T02:12:30;10.10;;;5.00;;
63653;SDS011;49809;47.418;19.080;2023-06-26T02:15:34;8.00;;;5.32;;
63653;SDS011;49809;47.418;19.080;2023-06-26T02:18:44;8.50;;;5.85;;
63653;SDS011;49809;47.418;19.080;2023-06-26T02:21:50;7.20;;;5.00;;
63653;SDS011;49809;47.418;19.080;2023-06-26T02:24:54;10.38;;;5.18;;
63653;SDS011;49809;47.418;19.080;2023-06-26T02:28:07;8.40;;;4.87;;
63653;SDS011;49809;47.418;19.080;2023-06-26T02:31:12;10.70;;;5.57;;
63653;SDS011;49809;47.418;19.080;2023-06-26T02:34:15;9.02;;;5.72;;
63653;SDS011;49809;47.418;19.080;2023-06-26T02:37:28;10.10;;;5.22;;
63653;SDS011;49809;47.418;19.080;2023-06-26T02:40:31;7.88;;;5.28;;
63653;SDS011;49809;47.418;19.080;2023-06-26T02:43:37;10.32;;;5.90;;
63653;SDS011;49809;47.418;19.080;2023-06-26T02:46:44;8.07;;;5.20;;
63653;SDS011;49809;47.418;19.080;2023-06-26T02:49:50;9.18;;;5.12;;
63653;SDS011;49809;47.418;19.080;2023-06-26T02:53:05;9.75;;;5.80;;
63653;SDS011;49809;47.418;19.080;2023-06-26T02:56:31;9.80;;;5.32;;
63653;SDS011;49809;47.418;19.080;2023-06-26T02:59:36;7.62;;;5.18;;
63653;SDS011;49809;47.418;19.080;2023-06-26T03:02:44;8.52;;;5.40;;
63653;SDS011;49809;47.418;19.080;2023-06-26T03:05:51;6.43;;;4.60;;
63653;SDS011;49809;47.418;19.080;2023-06-26T03:08:58;7.47;;;4.93;;
63653;SDS011;49809;47.418;19.080;2023-06-26T03:12:03;6.55;;;4.93;;
63653;SDS011;49809;47.418;19.080;2023-06-26T03:15:08;8.73;;;4.95;;
63653;SDS011;49809;47.418;19.080;2023-06-26T03:18:32;11.48;;;5.40;;
63653;SDS011;49809;47.418;19.080;2023-06-26T03:21:37;9.07;;;4.93;;
63653;SDS011;49809;47.418;19.080;2023-06-26T03:24:44;8.27;;;4.90;;
63653;SDS011;49809;47.418;19.080;2023-06-26T03:27:49;7.68;;;4.50;;
63653;SDS011;49809;47.418;19.080;2023-06-26T03:30:53;7.97;;;4.55;;
63653;SDS011;49809;47.418;19.080;2023-06-26T03:33:58;8.93;;;5.30;;
63653;SDS011;49809;47.418;19.080;2023-06-26T03:37:05;7.93;;;4.97;;
63653;SDS011;49809;47.418;19.080;2023-06-26T03:40:12;7.85;;;4.57;;
63653;SDS011;49809;47.418;19.080;2023-06-26T03:43:19;9.85;;;5.00;;
63653;SDS011;49809;47.418;19.080;2023-06-26T03:46:25;7.28;;;4.70;;
63653;SDS011;49809;47.418;19.080;2023-06-26T03:49:36;8.43;;;4.78;;
63653;SDS011;49809;47.418;19.080;2023-06-26T03:53:01;8.82;;;5.20;;
63653;SDS011;49809;47.418;19.080;2023-06-26T03:56:27;7.32;;;4.40;;
63653;SDS011;49809;47.418;19.080;2023-06-26T03:59:35;8.75;;;4.80;;
63653;SDS011;49809;47.418;19.080;2023-06-26T04:02:47;8.55;;;5.10;;
63653;SDS011;49809;47.418;19.080;2023-06-26T04:05:52;7.25;;;5.15;;
63653;SDS011;49809;47.418;19.080;2023-06-26T04:08:56;7.40;;;4.72;;
63653;SDS011;49809;47.418;19.080;2023-06-26T04:12:01;7.28;;;5.12;;
63653;SDS011;49809;47.418;19.080;2023-06-26T04:15:06;7.90;;;5.12;;
63653;SDS011;49809;47.418;19.080;2023-06-26T04:18:15;8.90;;;5.15;;
63653;SDS011;49809;47.418;19.080;2023-06-26T04:21:25;9.38;;;5.50;;
63653;SDS011;49809;47.418;19.080;2023-06-26T04:24:29;7.28;;;5.10;;
63653;SDS011;49809;47.418;19.080;2023-06-26T04:27:33;9.02;;;5.37;;
63653;SDS011;49809;47.418;19.080;2023-06-26T04:30:40;7.43;;;5.30;;
63653;SDS011;49809;47.418;19.080;2023-06-26T04:33:45;5.95;;;4.40;;
63653;SDS011;49809;47.418;19.080;2023-06-26T04:37:01;13.20;;;5.27;;
63653;SDS011;49809;47.418;19.080;2023-06-26T04:40:07;9.32;;;5.10;;
63653;SDS011;49809;47.418;19.080;2023-06-26T04:43:17;9.57;;;5.37;;
63653;SDS011;49809;47.418;19.080;2023-06-26T04:46:21;8.70;;;5.28;;
63653;SDS011;49809;47.418;19.080;2023-06-26T04:49:49;7.55;;;4.85;;
63653;SDS011;49809;47.418;19.080;2023-06-26T04:52:53;8.07;;;5.57;;
63653;SDS011;49809;47.418;19.080;2023-06-26T04:56:17;11.20;;;5.50;;
63653;SDS011;49809;47.418;19.080;2023-06-26T04:59:44;12.00;;;5.62;;
63653;SDS011;49809;47.418;19.080;2023-06-26T05:03:21;7.10;;;5.05;;
63653;SDS011;49809;47.418;19.080;2023-06-26T05:06:30;7.78;;;5.37;;
63653;SDS011;49809;47.418;19.080;2023-06-26T05:10:15;7.32;;;5.20;;
63653;SDS011;49809;47.418;19.080;2023-06-26T05:14:16;6.28;;;4.72;;
63653;SDS011;49809;47.418;19.080;2023-06-26T05:18:00;9.05;;;5.68;;
63653;SDS011;49809;47.418;19.080;2023-06-26T05:21:19;5.95;;;4.57;;
63653;SDS011;49809;47.418;19.080;2023-06-26T05:24:49;8.30;;;5.62;;
63653;SDS011;49809;47.418;19.080;2023-06-26T05:28:27;7.90;;;4.80;;
63653;SDS011;49809;47.418;19.080;2023-06-26T05:31:32;8.88;;;4.97;;
63653;SDS011;49809;47.418;19.080;2023-06-26T05:34:40;7.82;;;5.32;;
63653;SDS011;49809;47.418;19.080;2023-06-26T05:37:45;8.32;;;4.87;;
63653;SDS011;49809;47.418;19.080;2023-06-26T05:40:55;11.68;;;4.75;;
63653;SDS011;49809;47.418;19.080;2023-06-26T05:44:25;11.40;;;4.82;;
63653;SDS011;49809;47.418;19.080;2023-06-26T05:47:28;6.40;;;5.10;;
63653;SDS011;49809;47.418;19.080;2023-06-26T05:50:32;7.35;;;4.43;;
63653;SDS011;49809;47.418;19.080;2023-06-26T05:53:35;7.95;;;5.00;;
63653;SDS011;49809;47.418;19.080;2023-06-26T05:56:42;7.12;;;4.95;;
63653;SDS011;49809;47.418;19.080;2023-06-26T05:59:46;6.68;;;3.90;;
63653;SDS011;49809;47.418;19.080;2023-06-26T06:02:57;7.05;;;4.80;;
63653;SDS011;49809;47.418;19.080;2023-06-26T06:06:06;6.82;;;4.30;;
63653;SDS011;49809;47.418;19.080;2023-06-26T06:09:09;8.07;;;4.50;;
63653;SDS011;49809;47.418;19.080;2023-06-26T06:12:13;9.15;;;4.20;;
63653;SDS011;49809;47.418;19.080;2023-06-26T06:15:19;6.60;;;4.12;;
63653;SDS011;49809;47.418;19.080;2023-06-26T06:18:23;9.20;;;4.47;;
63653;SDS011;49809;47.418;19.080;2023-06-26T06:21:26;8.07;;;4.50;;
63653;SDS011;49809;47.418;19.080;2023-06-26T06:24:51;6.00;;;4.00;;
63653;SDS011;49809;47.418;19.080;2023-06-26T06:27:54;7.30;;;4.18;;
63653;SDS011;49809;47.418;19.080;2023-06-26T06:31:01;9.25;;;4.25;;
63653;SDS011;49809;47.418;19.080;2023-06-26T06:34:06;5.70;;;3.83;;
63653;SDS011;49809;47.418;19.080;2023-06-26T06:37:10;6.32;;;4.28;;
63653;SDS011;49809;47.418;19.080;2023-06-26T06:40:18;7.12;;;4.50;;
63653;SDS011;49809;47.418;19.080;2023-06-26T06:43:23;10.13;;;4.20;;
63653;SDS011;49809;47.418;19.080;2023-06-26T06:46:26;5.82;;;3.72;;
63653;SDS011;49809;47.418;19.080;2023-06-26T06:49:36;4.68;;;3.87;;
63653;SDS011;49809;47.418;19.080;2023-06-26T06:52:40;5.50;;;3.90;;
63653;SDS011;49809;47.418;19.080;2023-06-26T06:55:54;6.00;;;3.72;;
63653;SDS011;49809;47.418;19.080;2023-06-26T06:59:40;4.87;;;3.50;;
63653;SDS011;49809;47.418;19.080;2023-06-26T07:02:45;5.82;;;3.65;;
63653;SDS011;49809;47.418;19.080;2023-06-26T07:05:49;5.95;;;3.80;;
63653;SDS011;49809;47.418;19.080;2023-06-26T07:12:14;7.35;;;3.92;;
63653;SDS011;49809;47.418;19.080;2023-06-26T07:15:21;6.87;;;3.25;;
63653;SDS011;49809;47.418;19.080;2023-06-26T07:18:30;6.78;;;3.67;;
63653;SDS011;49809;47.418;19.080;2023-06-26T07:21:41;6.03;;;3.60;;
63653;SDS011;49809;47.418;19.080;2023-06-26T07:29:05;5.05;;;3.37;;
63653;SDS011;49809;47.418;19.080;2023-06-26T07:32:11;3.95;;;3.25;;
63653;SDS011;49809;47.418;19.080;2023-06-26T07:35:24;6.85;;;3.53;;
63653;SDS011;49809;47.418;19.080;2023-06-26T07:38:30;4.80;;;3.25;;
63653;SDS011;49809;47.418;19.080;2023-06-26T07:42:06;5.85;;;3.40;;
63653;SDS011;49809;47.418;19.080;2023-06-26T07:45:13;6.50;;;3.90;;
63653;SDS011;49809;47.418;19.080;2023-06-26T07:48:26;5.15;;;3.50;;
63653;SDS011;49809;47.418;19.080;2023-06-26T07:51:59;5.60;;;3.80;;
63653;SDS011;49809;47.418;19.080;2023-06-26T07:55:24;4.55;;;3.40;;
63653;SDS011;49809;47.418;19.080;2023-06-26T07:58:57;6.15;;;3.30;;
63653;SDS011;49809;47.418;19.080;2023-06-26T08:02:04;4.55;;;3.37;;
63653;SDS011;49809;47.418;19.080;2023-06-26T08:05:32;5.80;;;3.70;;
63653;SDS011;49809;47.418;19.080;2023-06-26T08:08:40;4.15;;;3.55;;
63653;SDS011;49809;47.418;19.080;2023-06-26T08:11:47;4.68;;;3.35;;
63653;SDS011;49809;47.418;19.080;2023-06-26T08:14:59;4.35;;;3.78;;
63653;SDS011;49809;47.418;19.080;2023-06-26T08:18:07;5.68;;;3.60;;
63653;SDS011;49809;47.418;19.080;2023-06-26T08:21:13;4.60;;;3.42;;
63653;SDS011;49809;47.418;19.080;2023-06-26T08:24:41;3.85;;;3.42;;
63653;SDS011;49809;47.418;19.080;2023-06-26T08:27:47;4.82;;;3.67;;
63653;SDS011;49809;47.418;19.080;2023-06-26T08:30:55;6.00;;;3.50;;
63653;SDS011;49809;47.418;19.080;2023-06-26T08:33:58;4.57;;;3.60;;
63653;SDS011;49809;47.418;19.080;2023-06-26T08:37:13;4.28;;;3.37;;
63653;SDS011;49809;47.418;19.080;2023-06-26T08:40:17;4.53;;;3.30;;
63653;SDS011;49809;47.418;19.080;2023-06-26T08:43:26;6.93;;;3.55;;
63653;SDS011;49809;47.418;19.080;2023-06-26T08:46:34;3.65;;;3.28;;
63653;SDS011;49809;47.418;19.080;2023-06-26T08:50:07;5.15;;;3.37;;
63653;SDS011;49809;47.418;19.080;2023-06-26T08:59:54;6.20;;;3.92;;
63653;SDS011;49809;47.418;19.080;2023-06-26T09:03:22;4.12;;;3.62;;
63653;SDS011;49809;47.418;19.080;2023-06-26T09:09:47;4.90;;;3.53;;
63653;SDS011;49809;47.418;19.080;2023-06-26T09:12:55;6.82;;;3.62;;
63653;SDS011;49809;47.418;19.080;2023-06-26T09:16:24;4.37;;;3.53;;
63653;SDS011;49809;47.418;19.080;2023-06-26T09:19:40;6.57;;;3.50;;
63653;SDS011;49809;47.418;19.080;2023-06-26T09:22:47;4.10;;;3.65;;
63653;SDS011;49809;47.418;19.080;2023-06-26T09:26:19;4.12;;;3.33;;
63653;SDS011;49809;47.418;19.080;2023-06-26T09:29:33;4.85;;;3.75;;
63653;SDS011;49809;47.418;19.080;2023-06-26T09:33:35;4.53;;;3.40;;
63653;SDS011;49809;47.418;19.080;2023-06-26T09:36:42;4.35;;;3.95;;
63653;SDS011;49809;47.418;19.080;2023-06-26T09:44:19;4.65;;;3.65;;
63653;SDS011;49809;47.418;19.080;2023-06-26T09:47:25;3.92;;;3.53;;
63653;SDS011;49809;47.418;19.080;2023-06-26T09:50:32;5.62;;;3.60;;
63653;SDS011;49809;47.418;19.080;2023-06-26T09:55:09;5.22;;;3.70;;
63653;SDS011;49809;47.418;19.080;2023-06-26T09:58:35;5.00;;;3.70;;
63653;SDS011;49809;47.418;19.080;2023-06-26T10:01:48;4.72;;;3.75;;
63653;SDS011;49809;47.418;19.080;2023-06-26T10:04:52;5.10;;;3.47;;
63653;SDS011;49809;47.418;19.080;2023-06-26T10:07:58;9.98;;;4.70;;
63653;SDS011;49809;47.418;19.080;2023-06-26T10:11:06;5.60;;;3.95;;
63653;SDS011;49809;47.418;19.080;2023-06-26T10:14:38;4.62;;;3.75;;
63653;SDS011;49809;47.418;19.080;2023-06-26T10:18:07;5.55;;;4.00;;
63653;SDS011;49809;47.418;19.080;2023-06-26T10:21:12;6.18;;;3.80;;
63653;SDS011;49809;47.418;19.080;2023-06-26T10:24:58;4.32;;;3.62;;
63653;SDS011;49809;47.418;19.080;2023-06-26T10:28:05;5.62;;;4.25;;
63653;SDS011;49809;47.418;19.080;2023-06-26T10:31:15;5.82;;;3.75;;
63653;SDS011;49809;47.418;19.080;2023-06-26T10:34:36;3.62;;;3.33;;
63653;SDS011;49809;47.418;19.080;2023-06-26T10:38:19;6.43;;;4.30;;
63653;SDS011;49809;47.418;19.080;2023-06-26T10:41:40;6.95;;;4.10;;
63653;SDS011;49809;47.418;19.080;2023-06-26T10:45:10;4.70;;;3.72;;
63653;SDS011;49809;47.418;19.080;2023-06-26T10:48:38;5.07;;;3.85;;
63653;SDS011;49809;47.418;19.080;2023-06-26T10:52:36;9.43;;;3.92;;
63653;SDS011;49809;47.418;19.080;2023-06-26T10:55:49;6.05;;;3.87;;
63653;SDS011;49809;47.418;19.080;2023-06-26T10:59:25;6.53;;;4.25;;
63653;SDS011;49809;47.418;19.080;2023-06-26T11:02:49;7.00;;;4.15;;
63653;SDS011;49809;47.418;19.080;2023-06-26T11:06:14;5.85;;;3.80;;
63653;SDS011;49809;47.418;19.080;2023-06-26T11:09:25;4.70;;;4.10;;
63653;SDS011;49809;47.418;19.080;2023-06-26T11:12:36;5.85;;;4.07;;
63653;SDS011;49809;47.418;19.080;2023-06-26T11:15:44;5.93;;;3.80;;
63653;SDS011;49809;47.418;19.080;2023-06-26T11:18:48;4.55;;;3.80;;
63653;SDS011;49809;47.418;19.080;2023-06-26T11:21:52;4.93;;;4.07;;
63653;SDS011;49809;47.418;19.080;2023-06-26T11:32:03;4.55;;;4.00;;
63653;SDS011;49809;47.418;19.080;2023-06-26T11:35:09;4.97;;;4.40;;
63653;SDS011;49809;47.418;19.080;2023-06-26T11:38:13;5.20;;;4.32;;
63653;SDS011;49809;47.418;19.080;2023-06-26T11:41:21;4.10;;;3.70;;
63653;SDS011;49809;47.418;19.080;2023-06-26T11:44:42;5.05;;;4.05;;
63653;SDS011;49809;47.418;19.080;2023-06-26T11:47:46;4.65;;;3.72;;
63653;SDS011;49809;47.418;19.080;2023-06-26T11:50:50;5.30;;;4.10;;
63653;SDS011;49809;47.418;19.080;2023-06-26T11:54:00;4.55;;;3.53;;
63653;SDS011;49809;47.418;19.080;2023-06-26T11:57:17;4.32;;;3.70;;
63653;SDS011;49809;47.418;19.080;2023-06-26T12:00:41;6.68;;;4.40;;
63653;SDS011;49809;47.418;19.080;2023-06-26T12:03:49;4.65;;;4.00;;
63653;SDS011;49809;47.418;19.080;2023-06-26T12:06:53;4.97;;;3.75;;
63653;SDS011;49809;47.418;19.080;2023-06-26T12:10:07;5.20;;;3.83;;
63653;SDS011;49809;47.418;19.080;2023-06-26T12:13:40;4.80;;;4.27;;
63653;SDS011;49809;47.418;19.080;2023-06-26T12:16:45;5.62;;;4.47;;
63653;SDS011;49809;47.418;19.080;2023-06-26T12:19:49;4.30;;;3.90;;
63653;SDS011;49809;47.418;19.080;2023-06-26T12:23:11;5.12;;;3.95;;
63653;SDS011;49809;47.418;19.080;2023-06-26T12:26:43;4.93;;;3.85;;
63653;SDS011;49809;47.418;19.080;2023-06-26T12:29:52;6.05;;;4.03;;
63653;SDS011;49809;47.418;19.080;2023-06-26T12:32:57;5.32;;;3.85;;
63653;SDS011;49809;47.418;19.080;2023-06-26T12:36:00;4.53;;;3.83;;
63653;SDS011;49809;47.418;19.080;2023-06-26T12:39:08;5.12;;;3.90;;
63653;SDS011;49809;47.418;19.080;2023-06-26T12:42:18;4.30;;;3.37;;
63653;SDS011;49809;47.418;19.080;2023-06-26T12:45:57;5.30;;;4.07;;
63653;SDS011;49809;47.418;19.080;2023-06-26T12:49:03;5.05;;;3.90;;
63653;SDS011;49809;47.418;19.080;2023-06-26T12:52:34;7.10;;;3.30;;
63653;SDS011;49809;47.418;19.080;2023-06-26T12:55:38;4.95;;;3.55;;
63653;SDS011;49809;47.418;19.080;2023-06-26T12:58:47;6.97;;;4.50;;
63653;SDS011;49809;47.418;19.080;2023-06-26T13:01:59;4.25;;;3.50;;
63653;SDS011;49809;47.418;19.080;2023-06-26T13:05:06;5.28;;;3.90;;
63653;SDS011;49809;47.418;19.080;2023-06-26T13:08:09;6.30;;;3.35;;
63653;SDS011;49809;47.418;19.080;2023-06-26T13:11:15;4.10;;;3.62;;
63653;SDS011;49809;47.418;19.080;2023-06-26T13:14:53;3.87;;;3.37;;
63653;SDS011;49809;47.418;19.080;2023-06-26T13:22:44;4.60;;;3.42;;
63653;SDS011;49809;47.418;19.080;2023-06-26T13:26:49;4.90;;;3.30;;
63653;SDS011;49809;47.418;19.080;2023-06-26T13:35:06;5.93;;;3.92;;
63653;SDS011;49809;47.418;19.080;2023-06-26T13:38:57;4.37;;;3.85;;
63653;SDS011;49809;47.418;19.080;2023-06-26T13:42:17;5.00;;;3.90;;
63653;SDS011;49809;47.418;19.080;2023-06-26T13:50:09;6.50;;;4.00;;
63653;SDS011;49809;47.418;19.080;2023-06-26T14:03:24;4.25;;;3.72;;
63653;SDS011;49809;47.418;19.080;2023-06-26T14:06:52;4.55;;;3.67;;
63653;SDS011;49809;47.418;19.080;2023-06-26T14:18:32;5.32;;;3.95;;
63653;SDS011;49809;47.418;19.080;2023-06-26T14:21:50;5.45;;;4.00;;
63653;SDS011;49809;47.418;19.080;2023-06-26T14:25:34;4.10;;;3.60;;
63653;SDS011;49809;47.418;19.080;2023-06-26T14:42:48;4.93;;;4.10;;
63653;SDS011;49809;47.418;19.080;2023-06-26T14:50:26;5.32;;;3.62;;
63653;SDS011;49809;47.418;19.080;2023-06-26T14:53:31;4.90;;;3.87;;
63653;SDS011;49809;47.418;19.080;2023-06-26T14:57:08;5.55;;;4.07;;
63653;SDS011;49809;47.418;19.080;2023-06-26T15:01:13;5.68;;;3.90;;
63653;SDS011;49809;47.418;19.080;2023-06-26T15:04:54;4.60;;;3.35;;
63653;SDS011;49809;47.418;19.080;2023-06-26T15:08:04;6.93;;;3.83;;
63653;SDS011;49809;47.418;19.080;2023-06-26T15:11:15;4.55;;;3.65;;
63653;SDS011;49809;47.418;19.080;2023-06-26T15:15:18;4.12;;;3.58;;
63653;SDS011;49809;47.418;19.080;2023-06-26T15:18:46;4.47;;;3.40;;
63653;SDS011;49809;47.418;19.080;2023-06-26T15:22:30;4.62;;;3.17;;
63653;SDS011;49809;47.418;19.080;2023-06-26T15:26:08;3.20;;;2.70;;
63653;SDS011;49809;47.418;19.080;2023-06-26T15:34:10;3.90;;;3.05;;
63653;SDS011;49809;47.418;19.080;2023-06-26T15:37:22;4.35;;;3.30;;
63653;SDS011;49809;47.418;19.080;2023-06-26T15:49:16;4.10;;;2.80;;
63653;SDS011;49809;47.418;19.080;2023-06-26T15:52:38;5.30;;;3.03;;
63653;SDS011;49809;47.418;19.080;2023-06-26T15:56:11;3.08;;;2.78;;
63653;SDS011;49809;47.418;19.080;2023-06-26T16:08:31;4.32;;;2.90;;
63653;SDS011;49809;47.418;19.080;2023-06-26T16:12:00;3.80;;;2.87;;
63653;SDS011;49809;47.418;19.080;2023-06-26T16:15:56;3.33;;;3.03;;
63653;SDS011;49809;47.418;19.080;2023-06-26T16:20:22;3.50;;;2.75;;
63653;SDS011;49809;47.418;19.080;2023-06-26T16:23:55;3.62;;;2.70;;
63653;SDS011;49809;47.418;19.080;2023-06-26T16:27:15;3.20;;;2.50;;
63653;SDS011;49809;47.418;19.080;2023-06-26T16:35:40;6.80;;;2.65;;
63653;SDS011;49809;47.418;19.080;2023-06-26T16:40:27;5.15;;;2.65;;
63653;SDS011;49809;47.418;19.080;2023-06-26T16:44:14;3.62;;;2.70;;
63653;SDS011;49809;47.418;19.080;2023-06-26T16:49:00;4.05;;;2.83;;
63653;SDS011;49809;47.418;19.080;2023-06-26T17:01:48;3.78;;;2.80;;
63653;SDS011;49809;47.418;19.080;2023-06-26T17:05:50;5.55;;;3.05;;
63653;SDS011;49809;47.418;19.080;2023-06-26T17:09:35;4.22;;;2.85;;
63653;SDS011;49809;47.418;19.080;2023-06-26T17:13:22;13.13;;;3.12;;
63653;SDS011;49809;47.418;19.080;2023-06-26T17:17:12;3.53;;;2.75;;
63653;SDS011;49809;47.418;19.080;2023-06-26T17:20:50;2.53;;;2.22;;
63653;SDS011;49809;47.418;19.080;2023-06-26T17:24:15;4.35;;;2.85;;
63653;SDS011;49809;47.418;19.080;2023-06-26T17:27:27;3.53;;;2.47;;
63653;SDS011;49809;47.418;19.080;2023-06-26T17:35:38;3.58;;;2.87;;
63653;SDS011;49809;47.418;19.080;2023-06-26T17:39:55;4.60;;;3.35;;
63653;SDS011;49809;47.418;19.080;2023-06-26T17:53:05;4.55;;;2.95;;
63653;SDS011;49809;47.418;19.080;2023-06-26T18:12:29;5.28;;;3.28;;
63653;SDS011;49809;47.418;19.080;2023-06-26T18:16:34;3.92;;;2.60;;
63653;SDS011;49809;47.418;19.080;2023-06-26T18:20:08;3.58;;;3.00;;
63653;SDS011;49809;47.418;19.080;2023-06-26T18:23:56;4.93;;;2.83;;
63653;SDS011;49809;47.418;19.080;2023-06-26T18:27:23;3.60;;;2.97;;
63653;SDS011;49809;47.418;19.080;2023-06-26T18:30:59;4.35;;;3.00;;
63653;SDS011;49809;47.418;19.080;2023-06-26T18:34:50;4.32;;;2.95;;
63653;SDS011;49809;47.418;19.080;2023-06-26T18:38:19;5.03;;;3.30;;
63653;SDS011;49809;47.418;19.080;2023-06-26T18:42:09;4.28;;;3.40;;
63653;SDS011;49809;47.418;19.080;2023-06-26T18:45:21;6.93;;;3.03;;
63653;SDS011;49809;47.418;19.080;2023-06-26T18:49:00;6.65;;;3.22;;
63653;SDS011;49809;47.418;19.080;2023-06-26T18:52:38;5.50;;;3.80;;
63653;SDS011;49809;47.418;19.080;2023-06-26T18:56:20;8.35;;;3.80;;
63653;SDS011;49809;47.418;19.080;2023-06-26T18:59:29;7.78;;;3.95;;
63653;SDS011;49809;47.418;19.080;2023-06-26T19:02:45;11.38;;;4.40;;
63653;SDS011;49809;47.418;19.080;2023-06-26T19:06:37;6.40;;;3.90;;
63653;SDS011;49809;47.418;19.080;2023-06-26T19:10:06;7.15;;;4.07;;
63653;SDS011;49809;47.418;19.080;2023-06-26T19:13:53;8.48;;;4.25;;
63653;SDS011;49809;47.418;19.080;2023-06-26T19:18:11;10.57;;;4.05;;
63653;SDS011;49809;47.418;19.080;2023-06-26T19:21:52;8.20;;;4.32;;
63653;SDS011;49809;47.418;19.080;2023-06-26T19:25:34;8.38;;;4.35;;
63653;SDS011;49809;47.418;19.080;2023-06-26T19:29:04;8.05;;;4.05;;
63653;SDS011;49809;47.418;19.080;2023-06-26T19:32:44;7.70;;;3.80;;
63653;SDS011;49809;47.418;19.080;2023-06-26T19:36:27;9.68;;;4.15;;
63653;SDS011;49809;47.418;19.080;2023-06-26T19:40:01;5.65;;;3.47;;
63653;SDS011;49809;47.418;19.080;2023-06-26T19:43:49;6.03;;;3.87;;
63653;SDS011;49809;47.418;19.080;2023-06-26T19:47:26;4.12;;;2.87;;
63653;SDS011;49809;47.418;19.080;2023-06-26T19:51:06;5.12;;;3.25;;
63653;SDS011;49809;47.418;19.080;2023-06-26T20:06:21;4.75;;;3.30;;
63653;SDS011;49809;47.418;19.080;2023-06-26T20:22:11;7.70;;;3.95;;
63653;SDS011;49809;47.418;19.080;2023-06-26T20:26:04;6.43;;;3.50;;
63653;SDS011;49809;47.418;19.080;2023-06-26T20:29:39;7.35;;;3.60;;
63653;SDS011;49809;47.418;19.080;2023-06-26T20:33:15;8.63;;;3.83;;
63653;SDS011;49809;47.418;19.080;2023-06-26T20:37:04;5.62;;;3.92;;
63653;SDS011;49809;47.418;19.080;2023-06-26T20:40:49;7.65;;;4.00;;
63653;SDS011;49809;47.418;19.080;2023-06-26T20:44:35;6.37;;;3.85;;
63653;SDS011;49809;47.418;19.080;2023-06-26T20:47:39;9.07;;;3.83;;
63653;SDS011;49809;47.418;19.080;2023-06-26T20:54:56;6.72;;;4.22;;
63653;SDS011;49809;47.418;19.080;2023-06-26T20:58:43;7.93;;;4.20;;
63653;SDS011;49809;47.418;19.080;2023-06-26T21:02:10;8.10;;;4.45;;
63653;SDS011;49809;47.418;19.080;2023-06-26T21:05:29;7.05;;;4.20;;
63653;SDS011;49809;47.418;19.080;2023-06-26T21:08:43;12.63;;;4.37;;
63653;SDS011;49809;47.418;19.080;2023-06-26T21:12:35;7.03;;;4.05;;
63653;SDS011;49809;47.418;19.080;2023-06-26T21:16:10;6.80;;;4.03;;
63653;SDS011;49809;47.418;19.080;2023-06-26T21:19:35;10.02;;;5.43;;
63653;SDS011;49809;47.418;19.080;2023-06-26T21:26:43;11.65;;;4.82;;
63653;SDS011;49809;47.418;19.080;2023-06-26T21:30:12;9.35;;;4.78;;
63653;SDS011;49809;47.418;19.080;2023-06-26T21:33:46;8.13;;;4.37;;
63653;SDS011;49809;47.418;19.080;2023-06-26T21:37:22;9.02;;;4.57;;
63653;SDS011;49809;47.418;19.080;2023-06-26T21:45:13;7.03;;;4.43;;
63653;SDS011;49809;47.418;19.080;2023-06-26T21:49:16;6.60;;;4.10;;
63653;SDS011;49809;47.418;19.080;2023-06-26T21:53:16;10.75;;;4.55;;
63653;SDS011;49809;47.418;19.080;2023-06-26T21:58:33;5.37;;;4.00;;
63653;SDS011;49809;47.418;19.080;2023-06-26T22:06:47;9.30;;;4.40;;
63653;SDS011;49809;47.418;19.080;2023-06-26T22:10:51;8.77;;;4.60;;
63653;SDS011;49809;47.418;19.080;2023-06-26T22:19:33;9.88;;;4.57;;
63653;SDS011;49809;47.418;19.080;2023-06-26T22:23:33;9.00;;;4.78;;
63653;SDS011;49809;47.418;19.080;2023-06-26T22:27:18;7.90;;;4.10;;
63653;SDS011;49809;47.418;19.080;2023-06-26T22:30:52;7.87;;;4.50;;
63653;SDS011;49809;47.418;19.080;2023-06-26T22:34:43;11.10;;;4.35;;
63653;SDS011;49809;47.418;19.080;2023-06-26T22:38:36;10.10;;;4.32;;
63653;SDS011;49809;47.418;19.080;2023-06-26T22:42:33;12.25;;;5.20;;
63653;SDS011;49809;47.418;19.080;2023-06-26T22:46:16;9.60;;;5.10;;
63653;SDS011;49809;47.418;19.080;2023-06-26T22:50:02;7.70;;;4.75;;
63653;SDS011;49809;47.418;19.080;2023-06-26T22:54:11;6.97;;;4.55;;
63653;SDS011;49809;47.418;19.080;2023-06-26T22:58:14;7.53;;;4.43;;
63653;SDS011;49809;47.418;19.080;2023-06-26T23:01:51;8.45;;;4.70;;
63653;SDS011;49809;47.418;19.080;2023-06-26T23:05:53;6.82;;;4.57;;
63653;SDS011;49809;47.418;19.080;2023-06-26T23:09:46;7.87;;;4.37;;
63653;SDS011;49809;47.418;19.080;2023-06-26T23:13:56;7.47;;;4.45;;
63653;SDS011;49809;47.418;19.080;2023-06-26T23:21:20;8.20;;;4.50;;
63653;SDS011;49809;47.418;19.080;2023-06-26T23:25:28;7.28;;;4.45;;
63653;SDS011;49809;47.418;19.080;2023-06-26T23:29:37;6.68;;;4.10;;